Airfield :
LOGIN :

Register | Disclaimer

   EN    FR    IT 

 










Legend :    VFR   Marginal VFR   IFR   Intensive IFR   Very Intensive IFR
Visi :
Ceiling :
>= 8 km
>= 3000ft
5 to 8 km
1000 to 3000 ft
1500m to 5 km
500 to 1000 ft
800 to 1500m
200 to 500 ft
< 800m
< 200 ft
Symbols :   Thunderstorms  Fog  Heavy snow  Heavy precipitations  Wind > 20 kt
SIGMETs :     Misc.  Thunderstorms  Icing  Turbulence  Mountain Waves  Volcanic Ashes







- Airport Elevation : 1411 ft
- IATA code : SZG


LOWS - Salzburg

CURRENT METAR :
  • 211550Z 03012KT CAVOK 22/02 Q1016 NOSIG

EXPIRED METARs :
  • 211520Z 04011KT CAVOK 22/02 Q1016 NOSIG
  • 211450Z 04010KT 010V070 CAVOK 22/02 Q1017 NOSIG
  • 211420Z 01010KT CAVOK 22/02 Q1017 NOSIG
  • 211350Z 02009KT 350V050 CAVOK 22/01 Q1017 NOSIG
  • 211320Z 03008KT 010V080 CAVOK 22/01 Q1018 NOSIG
  • 211250Z 02009KT CAVOK 22/02 Q1018 NOSIG

TAF TAF LOWS
Valid from the 21 at 12:00 until the 22 at 12:00 UTC


211115Z 2112/2212 02006KT CAVOK TX22/2114Z TN07/2204Z
TEMPO 2112/2116 03010KT
BECMG 2118/2120 15006KT
BECMG 2208/2210 02006KT
TEMPO 2211/2212 03013G23KT
No reported NOTAMs for that airfield.



MET'MAP, your aeronautical weather chart ! - Copyright ORBIFLY December 2007 - Disclaimer

ORBIFLY MET'MAP TEAM :

Programming & Development : Alexandra Zaïnal
Concept & Development : Baudouin d'Aumeries
Co-Development & Prog : Marc-Olivier Méhu
Technical & hardware support : Manuel Goepfert

Contact : metmap@orbifly.com




SOURCES & CREDITS :

   NOAA